Time;durP1;ratioP1;P1;durP2;ratioP2;P2;SDS_P1;SDS_P2;PMS_P1;PMS_P2;Temp;Humidity;BMP_temperature;BMP_pressure;BME280_temperature;BME280_humidity;BME280_pressure;Samples;Min_cycle;Max_cycle;Signal;HPM_P1;HPM_P2
2022/08/28 00:01:08;;;;;;;12.33;4.90;;;;;;;;;;5073126;28;20226;-75
2022/08/28 00:03:36;;;;;;;11.37;5.13;;;;;;;;;;5074914;28;20225;-74
2022/08/28 00:06:05;;;;;;;14.30;4.93;;;;;;;;;;5061401;28;20199;-75
2022/08/28 00:08:36;;;;;;;10.70;4.40;;;;;;;;;;5054337;28;20215;-75
2022/08/28 00:11:04;;;;;;;10.77;4.43;;;;;;;;;;5063765;28;20220;-75
2022/08/28 00:13:33;;;;;;;11.03;5.07;;;;;;;;;;5073804;28;20252;-74
2022/08/28 00:16:01;;;;;;;10.47;4.53;;;;;;;;;;5053725;28;20298;-75
2022/08/28 00:18:31;;;;;;;11.33;4.60;;;;;;;;;;5066361;28;20282;-75
2022/08/28 00:21:00;;;;;;;14.20;5.00;;;;;;;;;;5073891;28;20214;-75
2022/08/28 00:23:31;;;;;;;11.90;4.80;;;;;;;;;;5073813;28;20599;-75
2022/08/28 00:27:51;;;;;;;12.47;4.37;;;;;;;;;;5073442;28;20202;-75
2022/08/28 00:28:59;;;;;;;11.47;4.80;;;;;;;;;;5061788;28;20537;-75
2022/08/28 00:31:28;;;;;;;9.40;4.77;;;;;;;;;;5055259;28;20199;-75
2022/08/28 00:33:56;;;;;;;10.63;4.60;;;;;;;;;;5073702;28;20204;-75
2022/08/28 00:36:25;;;;;;;12.27;4.87;;;;;;;;;;5073674;28;20694;-75
2022/08/28 00:38:54;;;;;;;11.90;4.80;;;;;;;;;;5073943;28;20263;-75
2022/08/28 00:41:25;;;;;;;10.73;4.87;;;;;;;;;;5073692;28;20259;-75
2022/08/28 00:44:06;;;;;;;10.43;5.13;;;;;;;;;;5073212;28;20241;-75
2022/08/28 00:46:34;;;;;;;12.27;5.10;;;;;;;;;;5066903;28;20207;-75
2022/08/28 00:49:03;;;;;;;12.47;5.10;;;;;;;;;;5073671;28;20726;-74
2022/08/28 00:54:18;;;;;;;10.10;4.97;;;;;;;;;;5073859;28;20183;-75
2022/08/28 00:56:49;;;;;;;9.33;5.07;;;;;;;;;;5072617;28;20213;-75
2022/08/28 00:59:18;;;;;;;11.53;5.20;;;;;;;;;;5066085;28;20223;-74
2022/08/28 01:01:48;;;;;;;12.63;5.40;;;;;;;;;;5053228;28;20206;-75
2022/08/28 01:04:19;;;;;;;8.93;5.17;;;;;;;;;;5053337;28;20284;-75
2022/08/28 01:06:50;;;;;;;14.30;5.67;;;;;;;;;;5053391;28;20681;-74
2022/08/28 01:09:18;;;;;;;10.77;5.20;;;;;;;;;;5053539;28;20219;-75
2022/08/28 01:11:50;;;;;;;12.23;4.97;;;;;;;;;;5053681;28;20227;-75
2022/08/28 01:14:21;;;;;;;11.87;5.33;;;;;;;;;;5053364;28;20199;-75
2022/08/28 01:16:51;;;;;;;12.13;5.40;;;;;;;;;;5053971;28;20245;-75
2022/08/28 01:19:22;;;;;;;10.60;5.13;;;;;;;;;;5053113;28;20591;-75
2022/08/28 01:21:54;;;;;;;9.63;5.07;;;;;;;;;;5068363;28;20592;-74
2022/08/28 01:24:24;;;;;;;10.53;5.10;;;;;;;;;;5073640;28;20221;-75
2022/08/28 01:26:52;;;;;;;13.77;5.13;;;;;;;;;;5072634;28;20199;-74
2022/08/28 01:29:21;;;;;;;10.63;5.23;;;;;;;;;;5073137;28;20727;-75
2022/08/28 01:31:49;;;;;;;12.60;5.00;;;;;;;;;;5073437;28;20527;-75
2022/08/28 01:34:17;;;;;;;10.20;5.30;;;;;;;;;;5072572;28;20217;-75
2022/08/28 01:36:46;;;;;;;9.50;5.20;;;;;;;;;;4716770;28;10000451;-74
2022/08/28 01:39:16;;;;;;;11.83;5.27;;;;;;;;;;5050723;28;20742;-74
2022/08/28 01:41:47;;;;;;;9.17;4.90;;;;;;;;;;5084262;28;20605;-75
2022/08/28 01:44:16;;;;;;;13.33;5.67;;;;;;;;;;5093362;28;20772;-75
2022/08/28 01:46:46;;;;;;;12.30;5.37;;;;;;;;;;5082731;28;20662;-75
2022/08/28 01:49:15;;;;;;;10.80;5.57;;;;;;;;;;5072799;28;20691;-75
2022/08/28 01:51:43;;;;;;;10.30;5.33;;;;;;;;;;5064125;28;20198;-75
2022/08/28 01:54:12;;;;;;;12.83;5.63;;;;;;;;;;5071712;28;20218;-75
2022/08/28 01:56:41;;;;;;;9.97;4.97;;;;;;;;;;5072933;28;20210;-75
2022/08/28 01:59:13;;;;;;;9.07;5.57;;;;;;;;;;5072689;28;20284;-75
2022/08/28 02:01:42;;;;;;;9.97;5.07;;;;;;;;;;5073264;28;20183;-75
2022/08/28 02:04:11;;;;;;;13.10;6.10;;;;;;;;;;5072181;28;20202;-75
2022/08/28 02:06:40;;;;;;;11.67;5.80;;;;;;;;;;5072164;28;20271;-75
2022/08/28 02:09:10;;;;;;;10.90;5.43;;;;;;;;;;5072898;28;20230;-75
2022/08/28 02:11:42;;;;;;;11.07;5.40;;;;;;;;;;5072745;28;20189;-75
2022/08/28 02:14:15;;;;;;;7.77;4.90;;;;;;;;;;5072748;28;20199;-75
2022/08/28 02:16:43;;;;;;;9.63;5.33;;;;;;;;;;5072909;28;20629;-75
2022/08/28 02:19:12;;;;;;;11.77;5.37;;;;;;;;;;5062479;28;20308;-75
2022/08/28 02:21:41;;;;;;;10.43;5.50;;;;;;;;;;5066815;28;20225;-74
2022/08/28 02:24:09;;;;;;;9.43;5.53;;;;;;;;;;5071075;28;20651;-75
2022/08/28 02:26:38;;;;;;;10.70;5.50;;;;;;;;;;5072653;28;20226;-75
2022/08/28 02:29:06;;;;;;;10.90;5.10;;;;;;;;;;5074974;28;20590;-75
2022/08/28 02:31:36;;;;;;;9.27;5.30;;;;;;;;;;5076490;28;20915;-75
2022/08/28 02:34:05;;;;;;;11.10;5.70;;;;;;;;;;5091620;28;20206;-75
2022/08/28 02:36:34;;;;;;;14.57;5.67;;;;;;;;;;5096234;28;20201;-75
2022/08/28 02:39:02;;;;;;;12.47;5.47;;;;;;;;;;5096325;28;20214;-75
2022/08/28 02:41:31;;;;;;;12.43;5.40;;;;;;;;;;5076959;28;20665;-75
2022/08/28 02:43:59;;;;;;;12.17;5.67;;;;;;;;;;5055839;28;20218;-75
2022/08/28 02:46:28;;;;;;;10.33;5.90;;;;;;;;;;5063211;28;20226;-75
2022/08/28 02:48:58;;;;;;;12.13;5.67;;;;;;;;;;5075688;28;20301;-75
2022/08/28 02:51:26;;;;;;;11.93;5.70;;;;;;;;;;5076376;28;20210;-75
2022/08/28 02:53:55;;;;;;;11.13;5.53;;;;;;;;;;5074863;28;20236;-75
2022/08/28 02:56:23;;;;;;;11.50;6.13;;;;;;;;;;5075862;28;20256;-75
2022/08/28 02:58:51;;;;;;;12.77;5.97;;;;;;;;;;5075864;28;20218;-74
2022/08/28 03:01:23;;;;;;;12.47;5.80;;;;;;;;;;5083649;28;20228;-75
2022/08/28 03:03:52;;;;;;;19.77;6.33;;;;;;;;;;5068709;28;20206;-75
2022/08/28 03:06:22;;;;;;;9.77;5.87;;;;;;;;;;5055304;28;20735;-75
2022/08/28 03:08:51;;;;;;;9.33;5.63;;;;;;;;;;5056765;28;20245;-75
2022/08/28 03:11:19;;;;;;;14.57;6.07;;;;;;;;;;5055517;28;20237;-75
2022/08/28 03:13:48;;;;;;;12.40;6.10;;;;;;;;;;5055566;28;20211;-75
2022/08/28 03:16:16;;;;;;;12.33;5.77;;;;;;;;;;5071179;28;20203;-75
2022/08/28 03:18:46;;;;;;;11.00;5.90;;;;;;;;;;5075336;28;20617;-75
2022/08/28 03:21:14;;;;;;;11.50;5.53;;;;;;;;;;5075957;28;20210;-75
2022/08/28 03:23:43;;;;;;;11.10;5.57;;;;;;;;;;5075611;28;20213;-75
2022/08/28 03:26:12;;;;;;;9.00;5.63;;;;;;;;;;5075247;28;20573;-75
2022/08/28 03:28:42;;;;;;;11.53;5.40;;;;;;;;;;5074597;28;20565;-75
2022/08/28 03:31:13;;;;;;;9.40;5.37;;;;;;;;;;5055241;28;20234;-75
2022/08/28 03:33:42;;;;;;;11.90;5.33;;;;;;;;;;5055345;28;20661;-75
2022/08/28 03:36:13;;;;;;;12.53;6.00;;;;;;;;;;5055189;28;20199;-75
2022/08/28 03:38:42;;;;;;;15.47;5.60;;;;;;;;;;5054944;28;20207;-75
2022/08/28 03:41:13;;;;;;;13.60;6.17;;;;;;;;;;5054896;28;20222;-74
2022/08/28 03:43:42;;;;;;;13.80;5.43;;;;;;;;;;5064493;28;20252;-75
2022/08/28 03:46:14;;;;;;;12.63;5.50;;;;;;;;;;5074633;28;20226;-75
2022/08/28 03:48:42;;;;;;;10.73;5.50;;;;;;;;;;5074892;28;20186;-75
2022/08/28 03:51:13;;;;;;;13.57;5.87;;;;;;;;;;5074785;28;20206;-75
2022/08/28 03:53:42;;;;;;;15.53;6.00;;;;;;;;;;5074954;28;20186;-75
2022/08/28 03:56:13;;;;;;;10.77;5.23;;;;;;;;;;5074639;28;20199;-75
2022/08/28 03:58:43;;;;;;;11.57;4.90;;;;;;;;;;5074846;28;20289;-74
2022/08/28 04:01:11;;;;;;;8.40;5.53;;;;;;;;;;5074893;28;20210;-75
2022/08/28 04:03:40;;;;;;;11.00;5.50;;;;;;;;;;5074829;28;20205;-75
2022/08/28 04:06:08;;;;;;;9.10;4.83;;;;;;;;;;5074091;28;20261;-75
2022/08/28 04:08:37;;;;;;;11.03;5.30;;;;;;;;;;5074638;28;20614;-75
2022/08/28 04:11:06;;;;;;;9.13;4.77;;;;;;;;;;5071273;28;20284;-75
2022/08/28 04:13:35;;;;;;;7.87;4.90;;;;;;;;;;5054606;28;20207;-75
2022/08/28 04:16:06;;;;;;;13.87;4.80;;;;;;;;;;5059118;28;20202;-75
2022/08/28 04:18:35;;;;;;;10.50;4.97;;;;;;;;;;5073927;28;20207;-75
2022/08/28 04:21:06;;;;;;;8.03;4.50;;;;;;;;;;5074248;28;20730;-75
2022/08/28 04:23:35;;;;;;;11.33;4.93;;;;;;;;;;5073105;28;20202;-75
2022/08/28 04:26:04;;;;;;;12.90;5.27;;;;;;;;;;5064682;28;20661;-74
2022/08/28 04:28:33;;;;;;;15.50;5.50;;;;;;;;;;5054091;28;20214;-74
2022/08/28 04:31:03;;;;;;;9.20;4.87;;;;;;;;;;5054019;28;20629;-75
2022/08/28 04:33:32;;;;;;;9.23;5.23;;;;;;;;;;5054128;28;20256;-75
2022/08/28 04:36:02;;;;;;;8.87;5.17;;;;;;;;;;5054013;28;20211;-75
2022/08/28 04:38:32;;;;;;;13.80;5.83;;;;;;;;;;5054355;28;20245;-75
2022/08/28 04:41:04;;;;;;;9.37;5.27;;;;;;;;;;5067120;28;20230;-75
2022/08/28 04:43:32;;;;;;;9.37;4.73;;;;;;;;;;5073927;28;20205;-75
2022/08/28 04:46:05;;;;;;;9.93;4.73;;;;;;;;;;5073726;28;20552;-75
2022/08/28 04:48:34;;;;;;;12.10;5.00;;;;;;;;;;5073488;28;20206;-75
2022/08/28 04:51:05;;;;;;;11.37;4.87;;;;;;;;;;5073335;28;20230;-75
2022/08/28 04:53:33;;;;;;;12.00;5.60;;;;;;;;;;5073816;28;20564;-75
2022/08/28 04:56:03;;;;;;;8.57;4.87;;;;;;;;;;5072503;28;20210;-74
2022/08/28 04:58:32;;;;;;;11.10;5.13;;;;;;;;;;5055914;28;20207;-74
2022/08/28 05:01:07;;;;;;;9.93;4.60;;;;;;;;;;5053254;28;20319;-75
2022/08/28 05:03:36;;;;;;;12.07;4.90;;;;;;;;;;5054250;28;20719;-75
2022/08/28 05:06:04;;;;;;;12.90;5.37;;;;;;;;;;5053560;28;20207;-74
2022/08/28 05:08:33;;;;;;;12.10;4.87;;;;;;;;;;5059715;28;20272;-75
2022/08/28 05:11:10;;;;;;;8.67;4.63;;;;;;;;;;5073484;28;20253;-75
2022/08/28 05:13:38;;;;;;;8.80;4.87;;;;;;;;;;5070773;28;20671;-75
2022/08/28 05:16:08;;;;;;;9.23;4.70;;;;;;;;;;5053224;28;20214;-75
2022/08/28 05:18:38;;;;;;;10.57;4.70;;;;;;;;;;5053175;28;20293;-74
2022/08/28 05:21:11;;;;;;;11.57;4.83;;;;;;;;;;5053178;28;20226;-75
2022/08/28 05:23:42;;;;;;;12.03;4.90;;;;;;;;;;5065299;28;20241;-75
2022/08/28 05:26:11;;;;;;;11.70;4.87;;;;;;;;;;5052905;28;20215;-75
2022/08/28 05:28:40;;;;;;;10.40;4.77;;;;;;;;;;5053126;28;20235;-75
2022/08/28 05:31:11;;;;;;;9.97;4.30;;;;;;;;;;5053508;28;20243;-74
2022/08/28 05:33:39;;;;;;;10.90;4.20;;;;;;;;;;5053264;28;20218;-74
2022/08/28 05:36:08;;;;;;;10.87;4.43;;;;;;;;;;5052596;28;20241;-74
2022/08/28 05:38:37;;;;;;;10.03;4.63;;;;;;;;;;5052929;28;20298;-74
2022/08/28 05:41:06;;;;;;;11.23;4.73;;;;;;;;;;5052969;28;20227;-75
2022/08/28 05:43:35;;;;;;;9.13;4.33;;;;;;;;;;5053298;28;20215;-75
2022/08/28 05:46:06;;;;;;;11.83;4.07;;;;;;;;;;5057527;28;20210;-74
2022/08/28 05:48:36;;;;;;;8.63;4.33;;;;;;;;;;5072786;28;20230;-74
2022/08/28 05:51:07;;;;;;;8.93;4.40;;;;;;;;;;5080633;28;20642;-75
2022/08/28 05:53:37;;;;;;;11.47;4.27;;;;;;;;;;5091745;28;20206;-74
2022/08/28 05:56:06;;;;;;;8.97;3.63;;;;;;;;;;5072927;28;20202;-75
2022/08/28 05:58:34;;;;;;;8.20;4.10;;;;;;;;;;5073239;28;20233;-75
2022/08/28 06:01:06;;;;;;;11.53;4.00;;;;;;;;;;5072798;28;20284;-74
2022/08/28 06:03:37;;;;;;;11.67;4.23;;;;;;;;;;5074074;28;20213;-75
2022/08/28 06:06:06;;;;;;;8.33;4.10;;;;;;;;;;5074823;28;20656;-75
2022/08/28 06:08:34;;;;;;;7.43;4.03;;;;;;;;;;5076838;28;20746;-75
2022/08/28 06:11:04;;;;;;;9.90;4.17;;;;;;;;;;5077647;28;20276;-74
2022/08/28 06:13:34;;;;;;;10.83;3.90;;;;;;;;;;5076801;28;20279;-74
2022/08/28 06:16:04;;;;;;;8.53;3.73;;;;;;;;;;5075991;28;20244;-75
2022/08/28 06:18:36;;;;;;;9.43;4.20;;;;;;;;;;5076064;28;20289;-74
2022/08/28 06:21:05;;;;;;;10.20;3.97;;;;;;;;;;5076572;28;20594;-75
2022/08/28 06:23:33;;;;;;;10.07;3.63;;;;;;;;;;5058006;28;20230;-74
2022/08/28 06:26:02;;;;;;;7.43;3.60;;;;;;;;;;5086715;28;20201;-75
2022/08/28 06:28:30;;;;;;;10.07;3.70;;;;;;;;;;5096789;28;20751;-74
2022/08/28 06:30:59;;;;;;;7.70;3.60;;;;;;;;;;5096586;28;20233;-74
2022/08/28 06:33:48;;;;;;;13.70;3.57;;;;;;;;;;5095216;28;20205;-75
2022/08/28 06:36:17;;;;;;;8.20;3.43;;;;;;;;;;5096151;28;20205;-74
2022/08/28 06:38:46;;;;;;;9.40;3.17;;;;;;;;;;5092325;28;20211;-74
2022/08/28 06:41:14;;;;;;;10.93;3.73;;;;;;;;;;5076143;28;20206;-75
2022/08/28 06:43:43;;;;;;;11.10;3.57;;;;;;;;;;5076676;28;20217;-75
2022/08/28 06:46:12;;;;;;;11.00;3.20;;;;;;;;;;5076221;28;20206;-75
2022/08/28 06:48:40;;;;;;;9.17;3.20;;;;;;;;;;5057458;28;20227;-74
2022/08/28 06:51:11;;;;;;;8.80;3.50;;;;;;;;;;5068389;28;20225;-75
2022/08/28 06:53:43;;;;;;;6.77;3.00;;;;;;;;;;5080793;28;20214;-74
2022/08/28 06:56:12;;;;;;;7.90;2.83;;;;;;;;;;5080243;28;20672;-75
2022/08/28 06:58:55;;;;;;;12.60;3.10;;;;;;;;;;5064293;28;20199;-74
2022/08/28 07:01:27;;;;;;;9.93;3.10;;;;;;;;;;5067155;28;20305;-75
2022/08/28 07:03:58;;;;;;;6.00;3.10;;;;;;;;;;5079629;28;20257;-75
2022/08/28 07:06:28;;;;;;;8.37;3.10;;;;;;;;;;5072754;28;20639;-74
2022/08/28 07:08:58;;;;;;;9.37;3.00;;;;;;;;;;5070377;28;20219;-75
2022/08/28 07:11:27;;;;;;;8.00;2.87;;;;;;;;;;5073303;28;20210;-74
2022/08/28 07:13:57;;;;;;;9.93;2.97;;;;;;;;;;5070732;28;20298;-75
2022/08/28 07:16:27;;;;;;;7.00;3.40;;;;;;;;;;5074617;28;20202;-75
2022/08/28 07:18:56;;;;;;;8.10;2.27;;;;;;;;;;5074313;28;20256;-75
2022/08/28 07:21:24;;;;;;;10.63;3.10;;;;;;;;;;5067864;28;20206;-75
2022/08/28 07:23:55;;;;;;;12.02;3.05;;;;;;;;;;5074439;28;20221;-75
2022/08/28 07:26:26;;;;;;;6.97;2.93;;;;;;;;;;5084427;28;20202;-74
2022/08/28 07:29:00;;;;;;;7.73;2.93;;;;;;;;;;5071457;28;20702;-75
2022/08/28 07:31:39;;;;;;;8.10;3.00;;;;;;;;;;5074255;28;20321;-75
2022/08/28 07:34:10;;;;;;;7.43;2.92;;;;;;;;;;5080165;28;20567;-75
2022/08/28 07:36:41;;;;;;;8.52;2.90;;;;;;;;;;5078177;28;20203;-74
2022/08/28 07:39:13;;;;;;;6.78;2.58;;;;;;;;;;5078578;28;20308;-75
2022/08/28 07:41:43;;;;;;;5.32;2.70;;;;;;;;;;5085274;28;20222;-75
2022/08/28 07:47:04;;;;;;;9.15;2.92;;;;;;;;;;5067627;28;20202;-75
2022/08/28 07:49:39;;;;;;;7.57;2.78;;;;;;;;;;5077912;28;20238;-76
2022/08/28 07:52:11;;;;;;;6.93;2.60;;;;;;;;;;5057978;28;20199;-74
2022/08/28 07:54:46;;;;;;;8.25;2.60;;;;;;;;;;5074466;28;20257;-75
2022/08/28 07:57:24;;;;;;;7.40;2.63;;;;;;;;;;5073405;28;20205;-74
2022/08/28 07:59:53;;;;;;;6.88;2.75;;;;;;;;;;5072674;28;20214;-74
2022/08/28 08:02:21;;;;;;;5.38;2.50;;;;;;;;;;5069432;28;20222;-74
2022/08/28 08:04:50;;;;;;;5.88;2.60;;;;;;;;;;5073532;28;20207;-75
2022/08/28 08:07:19;;;;;;;8.25;2.72;;;;;;;;;;5072005;28;20563;-75
2022/08/28 08:09:49;;;;;;;9.50;2.85;;;;;;;;;;5081455;28;20318;-75
2022/08/28 08:12:17;;;;;;;6.45;2.55;;;;;;;;;;5075079;28;20199;-75
2022/08/28 08:14:48;;;;;;;6.63;2.50;;;;;;;;;;5079887;28;20633;-75
2022/08/28 08:17:16;;;;;;;6.28;2.53;;;;;;;;;;5073835;28;20209;-75
2022/08/28 08:19:45;;;;;;;8.35;2.72;;;;;;;;;;5073342;28;20295;-74
2022/08/28 08:22:13;;;;;;;7.70;2.88;;;;;;;;;;5068577;28;20624;-75
2022/08/28 08:24:42;;;;;;;6.68;2.70;;;;;;;;;;5072964;28;20206;-75
2022/08/28 08:27:11;;;;;;;8.40;2.50;;;;;;;;;;5061813;28;20583;-75
2022/08/28 08:29:40;;;;;;;6.50;2.53;;;;;;;;;;5053252;28;20598;-75
2022/08/28 08:32:11;;;;;;;7.85;2.40;;;;;;;;;;5092956;28;20210;-75
2022/08/28 08:34:40;;;;;;;7.95;2.83;;;;;;;;;;5078121;28;20202;-75
2022/08/28 08:37:09;;;;;;;6.85;2.75;;;;;;;;;;5073322;28;20576;-74
2022/08/28 08:39:37;;;;;;;6.47;2.53;;;;;;;;;;5073831;28;20636;-75
2022/08/28 08:42:08;;;;;;;6.00;2.65;;;;;;;;;;5073937;28;20210;-75
2022/08/28 08:44:40;;;;;;;8.88;2.65;;;;;;;;;;5073503;28;20264;-75
2022/08/28 08:47:10;;;;;;;7.60;2.63;;;;;;;;;;5074892;28;20210;-75
2022/08/28 08:49:44;;;;;;;7.63;3.10;;;;;;;;;;5073508;28;20234;-75
2022/08/28 08:52:27;;;;;;;8.52;3.03;;;;;;;;;;5061247;28;20207;-75
2022/08/28 08:55:04;;;;;;;7.15;2.75;;;;;;;;;;5069709;28;20293;-75
2022/08/28 08:57:34;;;;;;;5.32;2.70;;;;;;;;;;5073392;28;20190;-75
2022/08/28 09:00:05;;;;;;;7.18;2.65;;;;;;;;;;5089984;28;20752;-75
2022/08/28 09:02:37;;;;;;;8.52;2.78;;;;;;;;;;5093836;28;20235;-75
2022/08/28 09:05:07;;;;;;;7.35;2.67;;;;;;;;;;5062717;28;20202;-75
2022/08/28 09:07:38;;;;;;;5.72;2.35;;;;;;;;;;5061413;28;20211;-75
2022/08/28 09:10:09;;;;;;;6.82;2.53;;;;;;;;;;5073653;28;20977;-74
2022/08/28 09:12:48;;;;;;;7.03;2.63;;;;;;;;;;5071349;28;20678;-76
2022/08/28 09:15:23;;;;;;;5.97;2.80;;;;;;;;;;5070763;28;20232;-75
2022/08/28 09:17:53;;;;;;;8.43;4.60;;;;;;;;;;5070875;28;20221;-75
2022/08/28 09:20:23;;;;;;;6.35;2.30;;;;;;;;;;5069758;28;20226;-74
2022/08/28 09:23:00;;;;;;;6.82;2.72;;;;;;;;;;5084521;28;20890;-75
2022/08/28 09:25:48;;;;;;;5.75;2.55;;;;;;;;;;5091085;28;20197;-75
2022/08/28 09:28:20;;;;;;;5.53;2.47;;;;;;;;;;5091328;28;20229;-76
2022/08/28 09:30:55;;;;;;;7.18;2.38;;;;;;;;;;5091718;28;20248;-75
2022/08/28 09:33:30;;;;;;;8.60;2.60;;;;;;;;;;5092354;28;20239;-75
2022/08/28 09:36:12;;;;;;;6.18;2.85;;;;;;;;;;5091350;28;20205;-75
2022/08/28 09:38:41;;;;;;;7.72;2.65;;;;;;;;;;4736591;27;9999758;-75
2022/08/28 09:43:57;;;;;;;8.98;2.40;;;;;;;;;;5056387;28;20264;-75
2022/08/28 09:46:29;;;;;;;7.43;2.95;;;;;;;;;;5065520;28;20237;-75
2022/08/28 09:49:08;;;;;;;6.32;2.33;;;;;;;;;;5077800;28;20222;-75
2022/08/28 09:51:38;;;;;;;6.75;2.33;;;;;;;;;;5067620;28;20203;-74
2022/08/28 09:54:08;;;;;;;6.40;2.40;;;;;;;;;;5065522;28;20199;-75
2022/08/28 09:56:38;;;;;;;6.18;2.45;;;;;;;;;;5079723;28;20206;-74
2022/08/28 09:59:08;;;;;;;7.43;3.00;;;;;;;;;;5078943;28;20206;-75
2022/08/28 10:01:43;;;;;;;7.65;2.70;;;;;;;;;;5079412;28;20625;-75
2022/08/28 10:04:20;;;;;;;6.50;2.33;;;;;;;;;;5079464;28;20196;-75
2022/08/28 10:06:52;;;;;;;8.43;2.75;;;;;;;;;;5079278;28;20205;-75
2022/08/28 10:09:25;;;;;;;4.90;2.58;;;;;;;;;;5078969;28;20222;-75
2022/08/28 10:11:56;;;;;;;4.35;2.45;;;;;;;;;;5079568;28;20248;-75
2022/08/28 10:14:32;;;;;;;6.18;2.50;;;;;;;;;;5084477;28;20198;-75
2022/08/28 10:17:07;;;;;;;7.10;2.40;;;;;;;;;;5071963;28;20210;-75
2022/08/28 10:19:40;;;;;;;7.22;2.85;;;;;;;;;;5076303;28;20221;-75
2022/08/28 10:22:16;;;;;;;5.72;2.33;;;;;;;;;;5075184;28;20198;-74
2022/08/28 10:24:53;;;;;;;4.72;2.50;;;;;;;;;;5077334;28;20256;-75
2022/08/28 10:27:29;;;;;;;6.65;2.67;;;;;;;;;;5075715;28;20210;-75
2022/08/28 10:30:02;;;;;;;7.85;2.60;;;;;;;;;;5083307;28;20223;-75
2022/08/28 10:32:51;;;;;;;7.45;2.30;;;;;;;;;;5079215;28;20260;-75
2022/08/28 10:35:22;;;;;;;4.97;2.60;;;;;;;;;;5077181;28;20216;-76
2022/08/28 10:37:57;;;;;;;5.72;2.80;;;;;;;;;;5058153;28;20245;-75
2022/08/28 10:40:28;;;;;;;6.38;2.30;;;;;;;;;;5076971;28;20222;-75
2022/08/28 10:43:00;;;;;;;6.00;2.50;;;;;;;;;;5076861;28;20218;-75
2022/08/28 10:45:30;;;;;;;6.30;2.50;;;;;;;;;;5077498;28;21053;-76
2022/08/28 10:48:01;;;;;;;7.28;2.60;;;;;;;;;;5073358;28;20652;-75
2022/08/28 10:50:32;;;;;;;5.88;2.38;;;;;;;;;;5082122;28;20599;-75
2022/08/28 10:53:03;;;;;;;6.65;2.45;;;;;;;;;;5076857;28;20213;-75
2022/08/28 10:55:34;;;;;;;8.60;2.70;;;;;;;;;;5065595;28;20199;-75
2022/08/28 10:58:05;;;;;;;4.85;2.42;;;;;;;;;;5059566;28;20199;-75
2022/08/28 11:00:53;;;;;;;6.55;2.40;;;;;;;;;;5091028;28;20301;-75
2022/08/28 11:03:25;;;;;;;6.22;2.38;;;;;;;;;;5073064;28;20202;-75
2022/08/28 11:06:04;;;;;;;3.60;2.28;;;;;;;;;;5074548;28;20746;-75
2022/08/28 11:08:34;;;;;;;3.83;2.15;;;;;;;;;;5074867;28;20202;-75
2022/08/28 11:11:04;;;;;;;5.45;2.42;;;;;;;;;;5070915;28;20637;-75
2022/08/28 11:13:45;;;;;;;5.90;2.20;;;;;;;;;;5075157;28;20701;-75
2022/08/28 11:16:18;;;;;;;5.63;2.40;;;;;;;;;;5076565;28;20655;-74
2022/08/28 11:19:00;;;;;;;5.53;2.33;;;;;;;;;;5074138;28;20220;-74
2022/08/28 11:21:30;;;;;;;3.72;1.95;;;;;;;;;;5074615;28;20194;-75
2022/08/28 11:24:02;;;;;;;6.53;2.35;;;;;;;;;;5071859;28;20211;-75
2022/08/28 11:26:33;;;;;;;5.32;2.30;;;;;;;;;;5073538;28;20191;-76
2022/08/28 11:29:02;;;;;;;4.90;2.10;;;;;;;;;;5074165;28;20542;-75
2022/08/28 11:31:41;;;;;;;3.75;2.15;;;;;;;;;;5077542;28;20253;-75
2022/08/28 11:34:31;;;;;;;6.28;2.15;;;;;;;;;;5073798;28;20214;-75
2022/08/28 11:37:01;;;;;;;4.35;2.20;;;;;;;;;;5073275;28;20607;-75
2022/08/28 11:39:30;;;;;;;5.72;2.10;;;;;;;;;;5074430;28;20209;-75
2022/08/28 11:42:30;;;;;;;3.47;2.10;;;;;;;;;;5073746;28;20217;-75
2022/08/28 11:45:00;;;;;;;5.95;2.30;;;;;;;;;;5073880;28;20199;-75
2022/08/28 11:47:47;;;;;;;4.78;2.58;;;;;;;;;;5071328;28;20206;-74
2022/08/28 11:50:22;;;;;;;7.78;2.33;;;;;;;;;;5074786;28;20226;-75
2022/08/28 11:53:07;;;;;;;4.47;2.15;;;;;;;;;;5073173;28;20199;-75
2022/08/28 11:55:45;;;;;;;5.93;2.30;;;;;;;;;;5064632;28;20227;-75
2022/08/28 11:58:17;;;;;;;4.47;1.98;;;;;;;;;;5074239;28;20194;-75
2022/08/28 12:00:51;;;;;;;5.72;2.30;;;;;;;;;;5072336;28;20643;-75
2022/08/28 12:03:27;;;;;;;5.38;2.20;;;;;;;;;;5058293;28;20211;-75
2022/08/28 12:05:58;;;;;;;4.38;2.20;;;;;;;;;;5062470;28;20671;-75
2022/08/28 12:08:45;;;;;;;3.78;2.00;;;;;;;;;;5074328;28;20260;-75
2022/08/28 12:11:34;;;;;;;4.03;2.00;;;;;;;;;;5069058;28;20235;-76
2022/08/28 12:14:03;;;;;;;4.63;2.42;;;;;;;;;;5077622;28;20651;-74
2022/08/28 12:16:54;;;;;;;4.20;2.25;;;;;;;;;;5062649;28;20206;-75
2022/08/28 12:19:28;;;;;;;3.65;2.00;;;;;;;;;;5073361;28;20253;-75
2022/08/28 12:21:58;;;;;;;6.88;2.28;;;;;;;;;;5073629;28;20270;-75
2022/08/28 12:24:27;;;;;;;5.18;2.10;;;;;;;;;;5066087;28;20210;-75
2022/08/28 12:26:57;;;;;;;4.10;2.17;;;;;;;;;;5073205;28;20690;-75
2022/08/28 12:29:29;;;;;;;4.30;2.00;;;;;;;;;;5071688;28;20285;-75
2022/08/28 12:32:17;;;;;;;4.53;2.13;;;;;;;;;;5063718;28;20214;-75
2022/08/28 12:34:48;;;;;;;5.32;2.28;;;;;;;;;;5075484;28;20204;-74
2022/08/28 12:37:25;;;;;;;3.03;1.90;;;;;;;;;;5070330;28;20616;-75
2022/08/28 12:39:55;;;;;;;4.75;2.10;;;;;;;;;;5055175;28;20225;-75
2022/08/28 12:42:25;;;;;;;5.63;1.92;;;;;;;;;;5073590;28;20201;-75
2022/08/28 12:44:59;;;;;;;6.07;2.05;;;;;;;;;;5070816;28;20248;-76
2022/08/28 12:47:28;;;;;;;4.18;2.13;;;;;;;;;;5060616;28;20210;-74
2022/08/28 12:49:57;;;;;;;3.72;2.25;;;;;;;;;;5075365;28;20225;-75
2022/08/28 12:52:27;;;;;;;5.68;2.47;;;;;;;;;;5073758;28;20214;-76
2022/08/28 12:54:57;;;;;;;4.63;2.13;;;;;;;;;;5070828;28;20198;-76
2022/08/28 12:57:25;;;;;;;3.90;2.13;;;;;;;;;;5069533;28;20203;-75
2022/08/28 12:59:54;;;;;;;3.60;2.28;;;;;;;;;;5073885;28;20227;-75
2022/08/28 13:02:25;;;;;;;5.68;2.40;;;;;;;;;;5067865;28;20199;-75
2022/08/28 13:04:56;;;;;;;4.50;2.00;;;;;;;;;;5091958;28;20213;-75
2022/08/28 13:07:29;;;;;;;6.28;2.22;;;;;;;;;;5076599;28;20202;-75
2022/08/28 13:10:00;;;;;;;5.45;2.22;;;;;;;;;;5068088;28;20229;-76
2022/08/28 13:12:32;;;;;;;4.63;2.20;;;;;;;;;;5066690;28;20783;-75
2022/08/28 13:15:36;;;;;;;4.05;2.08;;;;;;;;;;5077115;28;20660;-79
2022/08/28 13:18:04;;;;;;;4.35;2.17;;;;;;;;;;5069994;28;20209;-79
2022/08/28 13:20:34;;;;;;;4.22;2.08;;;;;;;;;;5076790;28;20226;-79
2022/08/28 13:23:04;;;;;;;6.40;2.00;;;;;;;;;;5057438;28;20199;-79
2022/08/28 13:25:34;;;;;;;5.15;2.20;;;;;;;;;;5056202;28;20257;-81
2022/08/28 13:28:16;;;;;;;4.70;2.38;;;;;;;;;;5055790;28;20207;-79
2022/08/28 13:31:00;;;;;;;4.97;2.25;;;;;;;;;;5072422;28;20234;-79
2022/08/28 13:33:43;;;;;;;5.20;1.92;;;;;;;;;;5073733;28;20209;-79
2022/08/28 13:36:24;;;;;;;5.25;1.90;;;;;;;;;;5074195;28;20187;-79
2022/08/28 13:38:58;;;;;;;3.40;1.92;;;;;;;;;;5074240;28;20225;-80
2022/08/28 13:41:35;;;;;;;3.65;1.88;;;;;;;;;;5073984;28;20201;-79
2022/08/28 13:44:10;;;;;;;3.45;1.85;;;;;;;;;;5074072;28;20182;-80
2022/08/28 13:46:56;;;;;;;4.47;2.20;;;;;;;;;;5073492;28;20199;-79
2022/08/28 13:49:32;;;;;;;4.32;2.00;;;;;;;;;;5073246;28;20734;-79
2022/08/28 13:52:05;;;;;;;4.57;2.10;;;;;;;;;;5073246;28;20229;-80
2022/08/28 13:54:49;;;;;;;4.05;1.85;;;;;;;;;;5072275;28;20206;-79
2022/08/28 13:57:30;;;;;;;4.47;1.95;;;;;;;;;;5073273;28;20221;-79
2022/08/28 14:00:16;;;;;;;5.47;1.90;;;;;;;;;;5073415;28;20226;-80
2022/08/28 14:05:55;;;;;;;2.85;1.83;;;;;;;;;;5073891;28;20193;-79
2022/08/28 14:08:34;;;;;;;4.85;2.08;;;;;;;;;;5073481;28;20634;-76
2022/08/28 14:11:11;;;;;;;5.05;1.90;;;;;;;;;;5066954;28;20769;-77
2022/08/28 14:13:46;;;;;;;5.03;2.10;;;;;;;;;;5076278;28;20732;-76
2022/08/28 14:16:23;;;;;;;4.97;2.25;;;;;;;;;;5059106;28;20615;-77
2022/08/28 14:18:52;;;;;;;3.63;2.20;;;;;;;;;;5076450;28;20254;-77
2022/08/28 14:21:24;;;;;;;3.85;1.98;;;;;;;;;;5062254;28;20199;-77
2022/08/28 14:23:53;;;;;;;3.45;2.05;;;;;;;;;;5070715;28;20205;-76
2022/08/28 14:26:23;;;;;;;4.32;1.92;;;;;;;;;;5075143;28;20252;-75
2022/08/28 14:28:51;;;;;;;4.93;1.95;;;;;;;;;;5069232;28;20716;-75
2022/08/28 14:31:19;;;;;;;4.85;2.08;;;;;;;;;;5075695;28;20222;-74
2022/08/28 14:33:53;;;;;;;3.45;2.13;;;;;;;;;;5065094;28;20195;-74
2022/08/28 14:36:23;;;;;;;4.60;1.95;;;;;;;;;;5073820;28;20276;-74
2022/08/28 14:38:52;;;;;;;3.95;1.77;;;;;;;;;;5067380;28;20546;-74
2022/08/28 14:41:23;;;;;;;5.50;2.20;;;;;;;;;;5074776;28;20310;-74
2022/08/28 14:43:52;;;;;;;5.38;2.33;;;;;;;;;;5070903;28;20563;-75
2022/08/28 14:46:21;;;;;;;7.32;2.10;;;;;;;;;;5084688;28;20651;-74
2022/08/28 14:48:50;;;;;;;4.70;2.10;;;;;;;;;;5061775;28;20652;-74
2022/08/28 14:51:19;;;;;;;3.47;1.92;;;;;;;;;;5070320;28;20201;-75
2022/08/28 14:53:47;;;;;;;4.45;2.30;;;;;;;;;;5072167;28;20202;-74
2022/08/28 14:56:17;;;;;;;4.85;2.00;;;;;;;;;;5073661;28;20235;-74
2022/08/28 14:58:46;;;;;;;5.57;2.30;;;;;;;;;;5073006;28;20206;-75
2022/08/28 15:01:22;;;;;;;5.68;2.03;;;;;;;;;;5076369;28;20214;-75
2022/08/28 15:03:51;;;;;;;4.70;2.15;;;;;;;;;;5067758;28;20648;-74
2022/08/28 15:06:20;;;;;;;4.10;1.75;;;;;;;;;;5071365;28;20219;-74
2022/08/28 15:08:48;;;;;;;3.95;1.80;;;;;;;;;;5070482;28;20210;-75
2022/08/28 15:11:18;;;;;;;4.32;2.15;;;;;;;;;;5084804;28;20208;-74
2022/08/28 15:13:49;;;;;;;5.35;1.80;;;;;;;;;;5066077;28;20222;-74
2022/08/28 15:16:18;;;;;;;4.47;2.03;;;;;;;;;;5060894;28;20211;-75